sensor_id;sensor_type;location;lat;lon;timestamp;P1;durP1;ratioP1;P2;durP2;ratioP2
21663;SDS011;10993;52.510;13.456;2023-05-07T00:01:22;13.80;;;7.68;;
21663;SDS011;10993;52.510;13.456;2023-05-07T00:06:22;12.25;;;8.00;;
21663;SDS011;10993;52.510;13.456;2023-05-07T00:11:23;11.90;;;6.95;;
21663;SDS011;10993;52.510;13.456;2023-05-07T00:16:25;13.20;;;8.18;;
21663;SDS011;10993;52.510;13.456;2023-05-07T00:21:25;13.13;;;8.20;;
21663;SDS011;10993;52.510;13.456;2023-05-07T00:26:28;14.10;;;7.63;;
21663;SDS011;10993;52.510;13.456;2023-05-07T00:31:30;13.43;;;7.95;;
21663;SDS011;10993;52.510;13.456;2023-05-07T00:36:30;12.52;;;7.88;;
21663;SDS011;10993;52.510;13.456;2023-05-07T00:41:31;16.08;;;7.50;;
21663;SDS011;10993;52.510;13.456;2023-05-07T00:46:32;11.95;;;7.45;;
21663;SDS011;10993;52.510;13.456;2023-05-07T00:51:33;11.68;;;7.57;;
21663;SDS011;10993;52.510;13.456;2023-05-07T00:56:34;11.73;;;7.57;;
21663;SDS011;10993;52.510;13.456;2023-05-07T01:01:35;12.95;;;7.03;;
21663;SDS011;10993;52.510;13.456;2023-05-07T01:06:36;12.35;;;7.55;;
21663;SDS011;10993;52.510;13.456;2023-05-07T01:11:37;13.00;;;7.55;;
21663;SDS011;10993;52.510;13.456;2023-05-07T01:16:40;14.63;;;8.50;;
21663;SDS011;10993;52.510;13.456;2023-05-07T01:21:42;14.23;;;7.72;;
21663;SDS011;10993;52.510;13.456;2023-05-07T01:26:47;12.35;;;7.28;;
21663;SDS011;10993;52.510;13.456;2023-05-07T01:31:47;11.40;;;6.72;;
21663;SDS011;10993;52.510;13.456;2023-05-07T01:36:51;11.73;;;6.45;;
21663;SDS011;10993;52.510;13.456;2023-05-07T01:41:54;12.65;;;6.43;;
21663;SDS011;10993;52.510;13.456;2023-05-07T01:46:56;15.13;;;8.15;;
21663;SDS011;10993;52.510;13.456;2023-05-07T01:51:57;12.43;;;7.47;;
21663;SDS011;10993;52.510;13.456;2023-05-07T01:56:59;13.70;;;7.03;;
21663;SDS011;10993;52.510;13.456;2023-05-07T02:02:00;11.73;;;6.90;;
21663;SDS011;10993;52.510;13.456;2023-05-07T02:07:00;11.40;;;7.10;;
21663;SDS011;10993;52.510;13.456;2023-05-07T02:12:02;12.68;;;7.35;;
21663;SDS011;10993;52.510;13.456;2023-05-07T02:17:03;11.13;;;6.45;;
21663;SDS011;10993;52.510;13.456;2023-05-07T02:22:03;12.05;;;7.25;;
21663;SDS011;10993;52.510;13.456;2023-05-07T02:27:05;12.52;;;6.95;;
21663;SDS011;10993;52.510;13.456;2023-05-07T02:32:05;12.93;;;7.43;;
21663;SDS011;10993;52.510;13.456;2023-05-07T02:37:05;12.82;;;7.38;;
21663;SDS011;10993;52.510;13.456;2023-05-07T02:42:07;13.98;;;7.03;;
21663;SDS011;10993;52.510;13.456;2023-05-07T02:47:07;12.60;;;7.47;;
21663;SDS011;10993;52.510;13.456;2023-05-07T02:52:09;12.60;;;7.43;;
21663;SDS011;10993;52.510;13.456;2023-05-07T02:57:11;15.02;;;6.82;;
21663;SDS011;10993;52.510;13.456;2023-05-07T03:02:11;10.23;;;6.80;;
21663;SDS011;10993;52.510;13.456;2023-05-07T03:07:11;11.40;;;6.93;;
21663;SDS011;10993;52.510;13.456;2023-05-07T03:12:13;9.48;;;6.10;;
21663;SDS011;10993;52.510;13.456;2023-05-07T03:17:13;10.98;;;6.72;;
21663;SDS011;10993;52.510;13.456;2023-05-07T03:22:16;12.15;;;6.95;;
21663;SDS011;10993;52.510;13.456;2023-05-07T03:27:18;13.43;;;6.63;;
21663;SDS011;10993;52.510;13.456;2023-05-07T03:32:21;11.32;;;6.97;;
21663;SDS011;10993;52.510;13.456;2023-05-07T03:37:21;11.35;;;6.97;;
21663;SDS011;10993;52.510;13.456;2023-05-07T03:42:23;13.15;;;6.65;;
21663;SDS011;10993;52.510;13.456;2023-05-07T03:47:23;11.68;;;7.10;;
21663;SDS011;10993;52.510;13.456;2023-05-07T03:52:24;11.07;;;6.03;;
21663;SDS011;10993;52.510;13.456;2023-05-07T03:57:27;16.95;;;6.72;;
21663;SDS011;10993;52.510;13.456;2023-05-07T04:02:27;12.30;;;6.60;;
21663;SDS011;10993;52.510;13.456;2023-05-07T04:07:27;10.23;;;6.63;;
21663;SDS011;10993;52.510;13.456;2023-05-07T04:12:29;10.88;;;6.30;;
21663;SDS011;10993;52.510;13.456;2023-05-07T04:17:29;9.05;;;5.90;;
21663;SDS011;10993;52.510;13.456;2023-05-07T04:22:30;9.32;;;5.70;;
21663;SDS011;10993;52.510;13.456;2023-05-07T04:27:31;10.43;;;5.22;;
21663;SDS011;10993;52.510;13.456;2023-05-07T04:32:32;10.48;;;5.60;;
21663;SDS011;10993;52.510;13.456;2023-05-07T04:37:32;8.35;;;5.15;;
21663;SDS011;10993;52.510;13.456;2023-05-07T04:42:34;8.73;;;5.22;;
21663;SDS011;10993;52.510;13.456;2023-05-07T04:47:35;9.77;;;5.70;;
21663;SDS011;10993;52.510;13.456;2023-05-07T04:52:35;7.80;;;4.72;;
21663;SDS011;10993;52.510;13.456;2023-05-07T04:57:37;9.90;;;5.63;;
21663;SDS011;10993;52.510;13.456;2023-05-07T05:02:40;7.72;;;4.68;;
21663;SDS011;10993;52.510;13.456;2023-05-07T05:07:41;9.98;;;4.70;;
21663;SDS011;10993;52.510;13.456;2023-05-07T05:12:42;6.95;;;3.88;;
21663;SDS011;10993;52.510;13.456;2023-05-07T05:17:43;7.88;;;4.47;;
21663;SDS011;10993;52.510;13.456;2023-05-07T05:22:43;8.45;;;4.50;;
21663;SDS011;10993;52.510;13.456;2023-05-07T05:27:45;8.43;;;4.75;;
21663;SDS011;10993;52.510;13.456;2023-05-07T05:32:46;6.75;;;4.43;;
21663;SDS011;10993;52.510;13.456;2023-05-07T05:37:46;8.02;;;5.03;;
21663;SDS011;10993;52.510;13.456;2023-05-07T05:42:48;7.65;;;4.90;;
21663;SDS011;10993;52.510;13.456;2023-05-07T05:47:49;7.88;;;4.60;;
21663;SDS011;10993;52.510;13.456;2023-05-07T05:52:50;7.38;;;4.47;;
21663;SDS011;10993;52.510;13.456;2023-05-07T05:57:52;11.13;;;5.25;;
21663;SDS011;10993;52.510;13.456;2023-05-07T06:02:52;10.32;;;4.38;;
21663;SDS011;10993;52.510;13.456;2023-05-07T06:07:52;8.60;;;4.78;;
21663;SDS011;10993;52.510;13.456;2023-05-07T06:12:54;7.80;;;4.75;;
21663;SDS011;10993;52.510;13.456;2023-05-07T06:17:55;7.78;;;4.95;;
21663;SDS011;10993;52.510;13.456;2023-05-07T06:22:57;7.07;;;4.47;;
21663;SDS011;10993;52.510;13.456;2023-05-07T06:27:58;7.40;;;4.72;;
21663;SDS011;10993;52.510;13.456;2023-05-07T06:32:59;7.03;;;4.20;;
21663;SDS011;10993;52.510;13.456;2023-05-07T06:37:59;7.18;;;3.92;;
21663;SDS011;10993;52.510;13.456;2023-05-07T06:43:01;8.02;;;3.92;;
21663;SDS011;10993;52.510;13.456;2023-05-07T06:48:01;7.60;;;4.40;;
21663;SDS011;10993;52.510;13.456;2023-05-07T06:53:02;7.32;;;4.40;;
21663;SDS011;10993;52.510;13.456;2023-05-07T06:58:04;7.50;;;4.25;;
21663;SDS011;10993;52.510;13.456;2023-05-07T07:03:05;6.32;;;3.83;;
21663;SDS011;10993;52.510;13.456;2023-05-07T07:08:06;5.88;;;3.80;;
21663;SDS011;10993;52.510;13.456;2023-05-07T07:13:07;6.90;;;3.80;;
21663;SDS011;10993;52.510;13.456;2023-05-07T07:18:08;8.50;;;3.72;;
21663;SDS011;10993;52.510;13.456;2023-05-07T07:23:08;6.30;;;2.65;;
21663;SDS011;10993;52.510;13.456;2023-05-07T07:28:10;6.13;;;2.80;;
21663;SDS011;10993;52.510;13.456;2023-05-07T07:33:10;5.95;;;2.45;;
21663;SDS011;10993;52.510;13.456;2023-05-07T07:38:11;4.40;;;2.60;;
21663;SDS011;10993;52.510;13.456;2023-05-07T07:43:12;4.35;;;2.72;;
21663;SDS011;10993;52.510;13.456;2023-05-07T07:48:13;4.95;;;2.58;;
21663;SDS011;10993;52.510;13.456;2023-05-07T07:53:13;4.90;;;2.60;;
21663;SDS011;10993;52.510;13.456;2023-05-07T07:58:15;4.78;;;2.50;;
21663;SDS011;10993;52.510;13.456;2023-05-07T08:03:15;5.30;;;2.50;;
21663;SDS011;10993;52.510;13.456;2023-05-07T08:08:16;3.75;;;2.00;;
21663;SDS011;10993;52.510;13.456;2023-05-07T08:13:18;7.43;;;2.15;;
21663;SDS011;10993;52.510;13.456;2023-05-07T08:18:18;4.97;;;2.00;;
21663;SDS011;10993;52.510;13.456;2023-05-07T08:23:19;6.70;;;3.20;;
21663;SDS011;10993;52.510;13.456;2023-05-07T08:28:20;6.97;;;2.63;;
21663;SDS011;10993;52.510;13.456;2023-05-07T08:33:21;3.72;;;2.45;;
21663;SDS011;10993;52.510;13.456;2023-05-07T08:38:21;3.80;;;1.97;;
21663;SDS011;10993;52.510;13.456;2023-05-07T08:43:23;3.40;;;1.90;;
21663;SDS011;10993;52.510;13.456;2023-05-07T08:48:27;4.20;;;2.00;;
21663;SDS011;10993;52.510;13.456;2023-05-07T08:53:30;3.63;;;2.05;;
21663;SDS011;10993;52.510;13.456;2023-05-07T08:58:32;5.10;;;2.15;;
21663;SDS011;10993;52.510;13.456;2023-05-07T09:03:32;2.75;;;1.70;;
21663;SDS011;10993;52.510;13.456;2023-05-07T09:08:33;4.22;;;2.15;;
21663;SDS011;10993;52.510;13.456;2023-05-07T09:13:35;5.60;;;1.90;;
21663;SDS011;10993;52.510;13.456;2023-05-07T09:18:39;3.22;;;1.80;;
21663;SDS011;10993;52.510;13.456;2023-05-07T09:23:41;4.13;;;2.10;;
21663;SDS011;10993;52.510;13.456;2023-05-07T09:28:43;7.07;;;2.10;;
21663;SDS011;10993;52.510;13.456;2023-05-07T09:33:43;4.22;;;1.88;;
21663;SDS011;10993;52.510;13.456;2023-05-07T09:38:44;3.13;;;1.70;;
21663;SDS011;10993;52.510;13.456;2023-05-07T09:43:46;2.58;;;1.50;;
21663;SDS011;10993;52.510;13.456;2023-05-07T09:48:53;3.50;;;1.85;;
21663;SDS011;10993;52.510;13.456;2023-05-07T09:53:57;3.33;;;1.30;;
21663;SDS011;10993;52.510;13.456;2023-05-07T09:59:02;2.40;;;1.17;;
21663;SDS011;10993;52.510;13.456;2023-05-07T10:04:03;3.83;;;1.70;;
21663;SDS011;10993;52.510;13.456;2023-05-07T10:09:05;2.78;;;1.38;;
21663;SDS011;10993;52.510;13.456;2023-05-07T10:14:07;3.35;;;1.50;;
21663;SDS011;10993;52.510;13.456;2023-05-07T10:19:08;3.67;;;1.77;;
21663;SDS011;10993;52.510;13.456;2023-05-07T10:24:15;1.55;;;0.90;;
21663;SDS011;10993;52.510;13.456;2023-05-07T10:29:28;3.45;;;2.13;;
21663;SDS011;10993;52.510;13.456;2023-05-07T10:34:35;2.88;;;1.67;;
21663;SDS011;10993;52.510;13.456;2023-05-07T10:39:37;5.95;;;2.22;;
21663;SDS011;10993;52.510;13.456;2023-05-07T10:44:39;2.90;;;1.38;;
21663;SDS011;10993;52.510;13.456;2023-05-07T10:55:20;2.85;;;1.38;;
21663;SDS011;10993;52.510;13.456;2023-05-07T11:00:44;1.83;;;1.05;;
21663;SDS011;10993;52.510;13.456;2023-05-07T11:05:44;8.07;;;2.22;;
21663;SDS011;10993;52.510;13.456;2023-05-07T11:10:49;2.83;;;1.40;;
21663;SDS011;10993;52.510;13.456;2023-05-07T11:15:53;1.98;;;1.00;;
21663;SDS011;10993;52.510;13.456;2023-05-07T11:20:54;2.92;;;1.25;;
21663;SDS011;10993;52.510;13.456;2023-05-07T11:25:59;3.08;;;1.60;;
21663;SDS011;10993;52.510;13.456;2023-05-07T11:31:01;3.28;;;1.27;;
21663;SDS011;10993;52.510;13.456;2023-05-07T11:36:03;4.03;;;1.40;;
21663;SDS011;10993;52.510;13.456;2023-05-07T11:41:04;3.40;;;1.50;;
21663;SDS011;10993;52.510;13.456;2023-05-07T11:46:08;2.92;;;1.52;;
21663;SDS011;10993;52.510;13.456;2023-05-07T11:51:09;3.72;;;1.80;;
21663;SDS011;10993;52.510;13.456;2023-05-07T11:56:12;3.03;;;1.50;;
21663;SDS011;10993;52.510;13.456;2023-05-07T12:01:14;3.45;;;1.48;;
21663;SDS011;10993;52.510;13.456;2023-05-07T12:06:16;2.10;;;1.10;;
21663;SDS011;10993;52.510;13.456;2023-05-07T12:11:21;2.38;;;1.02;;
21663;SDS011;10993;52.510;13.456;2023-05-07T12:16:24;4.55;;;1.58;;
21663;SDS011;10993;52.510;13.456;2023-05-07T12:21:25;1.90;;;1.10;;
21663;SDS011;10993;52.510;13.456;2023-05-07T12:26:26;3.05;;;1.40;;
21663;SDS011;10993;52.510;13.456;2023-05-07T12:31:28;3.30;;;1.60;;
21663;SDS011;10993;52.510;13.456;2023-05-07T12:36:36;2.15;;;1.05;;
21663;SDS011;10993;52.510;13.456;2023-05-07T12:41:51;2.53;;;1.38;;
21663;SDS011;10993;52.510;13.456;2023-05-07T12:46:54;1.55;;;0.93;;
21663;SDS011;10993;52.510;13.456;2023-05-07T12:51:57;2.35;;;1.10;;
21663;SDS011;10993;52.510;13.456;2023-05-07T12:57:00;2.53;;;1.15;;
21663;SDS011;10993;52.510;13.456;2023-05-07T13:02:02;2.13;;;1.27;;
21663;SDS011;10993;52.510;13.456;2023-05-07T13:07:03;1.88;;;0.90;;
21663;SDS011;10993;52.510;13.456;2023-05-07T13:12:03;1.30;;;0.80;;
21663;SDS011;10993;52.510;13.456;2023-05-07T13:17:06;1.95;;;0.95;;
21663;SDS011;10993;52.510;13.456;2023-05-07T13:22:06;1.80;;;0.93;;
21663;SDS011;10993;52.510;13.456;2023-05-07T13:27:06;1.98;;;0.90;;
21663;SDS011;10993;52.510;13.456;2023-05-07T13:32:08;3.33;;;1.25;;
21663;SDS011;10993;52.510;13.456;2023-05-07T13:37:08;2.83;;;1.20;;
21663;SDS011;10993;52.510;13.456;2023-05-07T13:42:09;3.05;;;1.23;;
21663;SDS011;10993;52.510;13.456;2023-05-07T13:47:10;3.20;;;1.45;;
21663;SDS011;10993;52.510;13.456;2023-05-07T13:52:11;2.95;;;1.50;;
21663;SDS011;10993;52.510;13.456;2023-05-07T13:57:11;2.20;;;1.13;;
21663;SDS011;10993;52.510;13.456;2023-05-07T14:02:13;6.00;;;1.50;;
21663;SDS011;10993;52.510;13.456;2023-05-07T14:07:13;1.52;;;0.93;;
21663;SDS011;10993;52.510;13.456;2023-05-07T14:12:14;2.75;;;1.42;;
21663;SDS011;10993;52.510;13.456;2023-05-07T14:17:15;3.80;;;1.40;;
21663;SDS011;10993;52.510;13.456;2023-05-07T14:22:16;2.38;;;1.30;;
21663;SDS011;10993;52.510;13.456;2023-05-07T14:27:17;2.67;;;1.17;;
21663;SDS011;10993;52.510;13.456;2023-05-07T14:32:18;2.03;;;1.00;;
21663;SDS011;10993;52.510;13.456;2023-05-07T14:37:19;2.85;;;1.10;;
21663;SDS011;10993;52.510;13.456;2023-05-07T14:42:19;1.85;;;1.02;;
21663;SDS011;10993;52.510;13.456;2023-05-07T14:47:21;2.30;;;1.00;;
21663;SDS011;10993;52.510;13.456;2023-05-07T14:52:21;2.20;;;0.85;;
21663;SDS011;10993;52.510;13.456;2023-05-07T14:57:22;1.77;;;1.00;;
21663;SDS011;10993;52.510;13.456;2023-05-07T15:02:23;1.52;;;0.82;;
21663;SDS011;10993;52.510;13.456;2023-05-07T15:07:24;1.45;;;0.73;;
21663;SDS011;10993;52.510;13.456;2023-05-07T15:12:24;1.13;;;0.65;;
21663;SDS011;10993;52.510;13.456;2023-05-07T15:17:26;3.42;;;1.13;;
21663;SDS011;10993;52.510;13.456;2023-05-07T15:22:26;2.45;;;0.95;;
21663;SDS011;10993;52.510;13.456;2023-05-07T15:27:27;1.65;;;1.00;;
21663;SDS011;10993;52.510;13.456;2023-05-07T15:32:28;2.30;;;1.10;;
21663;SDS011;10993;52.510;13.456;2023-05-07T15:37:30;1.75;;;0.85;;
21663;SDS011;10993;52.510;13.456;2023-05-07T15:42:30;1.52;;;0.82;;
21663;SDS011;10993;52.510;13.456;2023-05-07T15:47:32;2.17;;;1.02;;
21663;SDS011;10993;52.510;13.456;2023-05-07T15:52:34;2.03;;;0.90;;
21663;SDS011;10993;52.510;13.456;2023-05-07T15:57:35;1.40;;;0.90;;
21663;SDS011;10993;52.510;13.456;2023-05-07T16:02:36;1.70;;;0.80;;
21663;SDS011;10993;52.510;13.456;2023-05-07T16:07:37;2.17;;;0.90;;
21663;SDS011;10993;52.510;13.456;2023-05-07T16:12:37;2.05;;;1.10;;
21663;SDS011;10993;52.510;13.456;2023-05-07T16:17:39;2.40;;;1.10;;
21663;SDS011;10993;52.510;13.456;2023-05-07T16:22:40;2.30;;;1.20;;
21663;SDS011;10993;52.510;13.456;2023-05-07T16:27:40;2.78;;;0.90;;
21663;SDS011;10993;52.510;13.456;2023-05-07T16:32:42;1.70;;;1.00;;
21663;SDS011;10993;52.510;13.456;2023-05-07T16:37:42;1.10;;;0.80;;
21663;SDS011;10993;52.510;13.456;2023-05-07T16:42:42;1.80;;;0.98;;
21663;SDS011;10993;52.510;13.456;2023-05-07T16:47:44;3.60;;;1.20;;
21663;SDS011;10993;52.510;13.456;2023-05-07T16:52:44;2.75;;;1.40;;
21663;SDS011;10993;52.510;13.456;2023-05-07T16:57:45;2.97;;;1.13;;
21663;SDS011;10993;52.510;13.456;2023-05-07T17:02:46;1.85;;;0.93;;
21663;SDS011;10993;52.510;13.456;2023-05-07T17:07:47;1.85;;;1.00;;
21663;SDS011;10993;52.510;13.456;2023-05-07T17:12:47;3.28;;;1.40;;
21663;SDS011;10993;52.510;13.456;2023-05-07T17:17:49;2.28;;;1.08;;
21663;SDS011;10993;52.510;13.456;2023-05-07T17:22:49;4.45;;;1.30;;
21663;SDS011;10993;52.510;13.456;2023-05-07T17:27:50;3.75;;;1.08;;
21663;SDS011;10993;52.510;13.456;2023-05-07T17:32:51;1.55;;;1.00;;
21663;SDS011;10993;52.510;13.456;2023-05-07T17:37:53;1.95;;;1.05;;
21663;SDS011;10993;52.510;13.456;2023-05-07T17:42:54;1.98;;;0.95;;
21663;SDS011;10993;52.510;13.456;2023-05-07T17:47:56;2.17;;;1.00;;
21663;SDS011;10993;52.510;13.456;2023-05-07T17:52:56;1.73;;;1.05;;
21663;SDS011;10993;52.510;13.456;2023-05-07T17:58:00;4.30;;;1.40;;
21663;SDS011;10993;52.510;13.456;2023-05-07T18:03:03;2.13;;;1.20;;
21663;SDS011;10993;52.510;13.456;2023-05-07T18:08:05;1.77;;;0.98;;
21663;SDS011;10993;52.510;13.456;2023-05-07T18:13:05;2.28;;;1.20;;
21663;SDS011;10993;52.510;13.456;2023-05-07T18:18:07;2.85;;;1.20;;
21663;SDS011;10993;52.510;13.456;2023-05-07T18:23:07;3.08;;;1.58;;
21663;SDS011;10993;52.510;13.456;2023-05-07T18:28:08;3.53;;;1.52;;
21663;SDS011;10993;52.510;13.456;2023-05-07T18:33:09;2.83;;;1.10;;
21663;SDS011;10993;52.510;13.456;2023-05-07T18:38:10;5.47;;;1.55;;
21663;SDS011;10993;52.510;13.456;2023-05-07T18:43:10;2.45;;;1.23;;
21663;SDS011;10993;52.510;13.456;2023-05-07T18:48:12;2.63;;;1.27;;
21663;SDS011;10993;52.510;13.456;2023-05-07T18:53:12;3.33;;;1.02;;
21663;SDS011;10993;52.510;13.456;2023-05-07T18:58:12;4.40;;;1.02;;
21663;SDS011;10993;52.510;13.456;2023-05-07T19:03:14;2.80;;;1.33;;
21663;SDS011;10993;52.510;13.456;2023-05-07T19:08:15;2.83;;;1.30;;
21663;SDS011;10993;52.510;13.456;2023-05-07T19:13:16;2.50;;;1.25;;
21663;SDS011;10993;52.510;13.456;2023-05-07T19:18:18;2.15;;;1.35;;
21663;SDS011;10993;52.510;13.456;2023-05-07T19:23:18;3.50;;;1.30;;
21663;SDS011;10993;52.510;13.456;2023-05-07T19:28:18;4.05;;;1.23;;
21663;SDS011;10993;52.510;13.456;2023-05-07T19:33:21;1.98;;;1.00;;
21663;SDS011;10993;52.510;13.456;2023-05-07T19:38:22;2.00;;;1.08;;
21663;SDS011;10993;52.510;13.456;2023-05-07T19:43:22;2.85;;;1.67;;
21663;SDS011;10993;52.510;13.456;2023-05-07T19:48:24;3.15;;;1.20;;
21663;SDS011;10993;52.510;13.456;2023-05-07T19:53:24;3.22;;;1.48;;
21663;SDS011;10993;52.510;13.456;2023-05-07T19:58:25;3.65;;;1.52;;
21663;SDS011;10993;52.510;13.456;2023-05-07T20:03:26;3.17;;;1.73;;
21663;SDS011;10993;52.510;13.456;2023-05-07T20:08:27;3.35;;;1.50;;
21663;SDS011;10993;52.510;13.456;2023-05-07T20:13:27;3.22;;;1.38;;
21663;SDS011;10993;52.510;13.456;2023-05-07T20:18:29;2.80;;;1.42;;
21663;SDS011;10993;52.510;13.456;2023-05-07T20:23:30;3.83;;;2.00;;
21663;SDS011;10993;52.510;13.456;2023-05-07T20:28:30;2.88;;;1.70;;
21663;SDS011;10993;52.510;13.456;2023-05-07T20:33:32;4.22;;;2.25;;
21663;SDS011;10993;52.510;13.456;2023-05-07T20:38:32;2.80;;;1.90;;
21663;SDS011;10993;52.510;13.456;2023-05-07T20:43:33;4.18;;;1.80;;
21663;SDS011;10993;52.510;13.456;2023-05-07T20:48:35;4.47;;;1.95;;
21663;SDS011;10993;52.510;13.456;2023-05-07T20:53:35;4.28;;;2.22;;
21663;SDS011;10993;52.510;13.456;2023-05-07T20:58:36;3.17;;;1.95;;
21663;SDS011;10993;52.510;13.456;2023-05-07T21:03:38;4.18;;;2.55;;
21663;SDS011;10993;52.510;13.456;2023-05-07T21:08:38;3.58;;;1.90;;
21663;SDS011;10993;52.510;13.456;2023-05-07T21:13:38;4.40;;;2.28;;
21663;SDS011;10993;52.510;13.456;2023-05-07T21:18:40;3.40;;;2.10;;
21663;SDS011;10993;52.510;13.456;2023-05-07T21:23:40;5.85;;;2.60;;
21663;SDS011;10993;52.510;13.456;2023-05-07T21:28:41;3.50;;;2.25;;
21663;SDS011;10993;52.510;13.456;2023-05-07T21:33:43;4.13;;;2.42;;
21663;SDS011;10993;52.510;13.456;2023-05-07T21:38:43;5.47;;;2.55;;
21663;SDS011;10993;52.510;13.456;2023-05-07T21:43:43;5.00;;;2.92;;
21663;SDS011;10993;52.510;13.456;2023-05-07T21:48:45;6.60;;;3.20;;
21663;SDS011;10993;52.510;13.456;2023-05-07T21:53:46;5.18;;;2.90;;
21663;SDS011;10993;52.510;13.456;2023-05-07T21:58:46;6.13;;;3.22;;
21663;SDS011;10993;52.510;13.456;2023-05-07T22:03:48;5.43;;;3.38;;
21663;SDS011;10993;52.510;13.456;2023-05-07T22:08:49;5.05;;;3.28;;
21663;SDS011;10993;52.510;13.456;2023-05-07T22:13:50;5.63;;;3.20;;
21663;SDS011;10993;52.510;13.456;2023-05-07T22:18:51;6.22;;;3.60;;
21663;SDS011;10993;52.510;13.456;2023-05-07T22:23:52;4.20;;;2.90;;
21663;SDS011;10993;52.510;13.456;2023-05-07T22:28:52;5.82;;;3.30;;
21663;SDS011;10993;52.510;13.456;2023-05-07T22:33:54;5.85;;;3.00;;
21663;SDS011;10993;52.510;13.456;2023-05-07T22:38:54;7.43;;;3.97;;
21663;SDS011;10993;52.510;13.456;2023-05-07T22:43:55;5.20;;;3.00;;
21663;SDS011;10993;52.510;13.456;2023-05-07T22:48:56;4.68;;;2.80;;
21663;SDS011;10993;52.510;13.456;2023-05-07T22:53:57;4.63;;;3.00;;
21663;SDS011;10993;52.510;13.456;2023-05-07T22:58:57;6.20;;;2.65;;
21663;SDS011;10993;52.510;13.456;2023-05-07T23:03:59;5.75;;;3.22;;
21663;SDS011;10993;52.510;13.456;2023-05-07T23:08:59;6.25;;;3.08;;
21663;SDS011;10993;52.510;13.456;2023-05-07T23:14:00;6.60;;;3.13;;
21663;SDS011;10993;52.510;13.456;2023-05-07T23:19:01;5.53;;;2.85;;
21663;SDS011;10993;52.510;13.456;2023-05-07T23:24:01;5.90;;;3.17;;
21663;SDS011;10993;52.510;13.456;2023-05-07T23:29:02;4.32;;;2.97;;
21663;SDS011;10993;52.510;13.456;2023-05-07T23:34:04;5.30;;;3.08;;
21663;SDS011;10993;52.510;13.456;2023-05-07T23:39:05;5.25;;;3.30;;
21663;SDS011;10993;52.510;13.456;2023-05-07T23:44:05;4.47;;;3.00;;
21663;SDS011;10993;52.510;13.456;2023-05-07T23:49:07;4.90;;;3.03;;
21663;SDS011;10993;52.510;13.456;2023-05-07T23:54:07;6.32;;;3.20;;
21663;SDS011;10993;52.510;13.456;2023-05-07T23:59:08;5.90;;;3.30;;
